ADDS METAR Data INFO
IDs: Format: Raw Decoded Include TAF

Data at: 0026 UTC 15 Dec 2017

KLAA 142353Z AUTO 36008KT 10SM OVC090 02/M04 A3023 RMK AO2 SLP249 60000 T00221039 10061 20011 53015
KLAA 142253Z AUTO 33009KT 10SM SCT047 BKN060 03/M01 A3021 RMK AO2 SLP235 T00281011
KLAA 142153Z AUTO 32006KT 10SM BKN030 OVC050 02/M01 A3020 RMK AO2 PK WND 01026/2115 RAE08SNB2055E42 SLP234 P0000 T00221006
KLAA 142139Z AUTO 32008KT 3SM -SN BR BKN022 BKN032 OVC050 02/M01 A3020 RMK AO2 PK WND 01026/2115 RAE08SNB2055 P0000 T00171006
KLAA 142134Z AUTO 34008KT 1 3/4SM -SN BR BKN018 OVC032 01/M01 A3020 RMK AO2 PK WND 01026/2115 RAE08SNB2055 P0000 T00111011
KLAA 142125Z AUTO 36013G21KT 1 3/4SM -SN BR SCT025 BKN030 OVC044 02/M01 A3020 RMK AO2 PK WND 01026/2115 RAE08SNB2055 P0000 T00171006
KLAA 142118Z AUTO 36020G26KT 2 1/2SM -SN FEW016 BKN029 OVC044 02/M01 A3020 RMK AO2 PK WND 01026/2115 RAE08SNB2055 P0000 T00221011
KLAA 142053Z AUTO 36016G24KT 5SM -RA SCT036 OVC048 04/M02 A3018 RMK AO2 RAB47 SLP225 P0000 60000 T00391022 55008
KLAA 141953Z AUTO 01012KT 10SM BKN048 OVC060 06/M04 A3018 RMK AO2 WSHFT 1852 SLP220 T00561044
KLAA 141912Z AUTO 34016G20KT 10SM OVC055 06/M04 A3018 RMK AO2 WSHFT 1852 T00611044
KLAA 141853Z AUTO 36013G17KT 10SM OVC060 06/M02 A3019 RMK AO2 SLP224 T00561022
KLAA 141753Z AUTO 30013KT 10SM OVC080 06/M01 A3021 RMK AO2 SLP229 60001 T00561011 10056 20000 58001
KLAA 141653Z AUTO 28012KT 10SM OVC075 03/00 A3021 RMK AO2 SLP232 T00330000
KLAA 141553Z AUTO 26010KT 10SM OVC055 02/00 A3022 RMK AO2 SLP235 T00170000
KLAA 141453Z AUTO 27009KT 10SM OVC070 01/M01 A3021 RMK AO2 SNE1356 SLP234 P0000 60001 T00061006 52011
KLAA 141353Z AUTO 24006KT 5SM -SN BR OVC050 00/M01 A3020 RMK AO2 SLP234 P0000 T00001011
KLAA 141304Z AUTO 26003KT 3SM -SN BR OVC038 00/M01 A3019 RMK AO2 P0000 T00001011
KLAA 141253Z AUTO 28003KT 2 1/2SM -SN BR OVC036 00/M01 A3019 RMK AO2 SLP233 P0001 T00001011
KLAA 141229Z AUTO 00000KT 2 1/2SM -SN BR FEW010 OVC027 00/M01 A3018 RMK AO2 P0001 T00001011
KLAA 141217Z AUTO 34004KT 1 1/2SM -SN BR FEW012 OVC023 00/M01 A3018 RMK AO2 P0001 T00001011
KLAA 141204Z AUTO 35005KT 2SM -SN BR OVC022 00/M01 A3018 RMK AO2 P0000 T00001011
KLAA 141153Z AUTO 36006KT 1 3/4SM -SN BR OVC020 00/M02 A3018 RMK AO2 SNB09 SLP220 P0000 60000 T00001017 10044 20000 53016
KLAA 141140Z AUTO 35007KT 1 3/4SM -SN BR OVC024 00/M02 A3017 RMK AO2 SNB09 P0000 T00001017
KLAA 141126Z AUTO 36012KT 2 1/2SM -SN OVC028 01/M02 A3017 RMK AO2 SNB09 P0000 T00061022
KLAA 141053Z AUTO 02016KT 10SM OVC050 02/M05 A3016 RMK AO2 SLP204 T00221050
KLAA 140953Z AUTO 36003KT 10SM BKN055 02/M08 A3013 RMK AO2 SLP192 T00221083
KLAA 140853Z AUTO 06003KT 10SM CLR 02/M09 A3012 RMK AO2 SLP188 T00221094 51016
KLAA 140753Z AUTO 05004KT 10SM CLR 03/M09 A3010 RMK AO2 SLP180 T00331094
KLAA 140653Z AUTO 05004KT 10SM CLR 03/M10 A3010 RMK AO2 SLP180 T00331100 401561067
KLAA 140553Z AUTO 05005KT 10SM CLR 04/M10 A3007 RMK AO2 SLP170 T00391100 10083 20033 53015
KLAA 140453Z AUTO 05006KT 10SM CLR 06/M10 A3005 RMK AO2 SLP163 T00611100
KLAA 140353Z AUTO 06005KT 10SM CLR 07/M11 A3002 RMK AO2 SLP159 T00721106
KLAA 140253Z AUTO 07004KT 10SM CLR 07/M11 A3002 RMK AO2 SLP161 T00721106 53010
KLAA 140153Z AUTO VRB03KT 10SM CLR 04/M11 A3001 RMK AO2 SLP173 T00441111
KLAA 140053Z AUTO 00000KT 9SM CLR 03/M12 A3000 RMK AO2 SLP174 T00331117
KLAA 132353Z AUTO 05005KT 10SM CLR 08/M11 A2999 RMK AO2 SLP161 T00831106 10156 20083 55005
KLAA 132253Z AUTO 04006KT 10SM CLR 13/M11 A2998 RMK AO2 SLP153 T01281106
KLAA 132153Z AUTO 02005KT 10SM CLR 16/M11 A2998 RMK AO2 SLP146 T01561106
KLAA 132053Z AUTO 35010KT 10SM CLR 16/M10 A3000 RMK AO2 SLP148 T01561100 56032
KLAA 131953Z AUTO 35009KT 10SM CLR 14/M11 A3003 RMK AO2 SLP161 T01441106
KLAA 131853Z AUTO 34008KT 10SM CLR 14/M10 A3006 RMK AO2 SLP172 T01441100
KLAA 131753Z AUTO 36013G18KT CLR 13/M10 A3011 RMK AO2 SLP189 T01331100 10144 21067 58003 $
KLAA 131653Z AUTO 29007KT CLR 11/M11 A3012 RMK AO2 SLP195 T01111106 $
KLAA 131644Z AUTO 28009KT 1SM HZ CLR 11/M11 A3012 RMK AO2 T01061106
KLAA 131553Z AUTO 27004KT 10SM CLR 07/M11 A3012 RMK AO2 SLP206 T00721106
KLAA 131453Z AUTO 22003KT 10SM CLR 04/M11 A3010 RMK AO2 SLP201 T00441106 51015
KLAA 131353Z AUTO 20009KT 10SM CLR M04/M11 A3008 RMK AO2 SLP204 T10391111
KLAA 131253Z AUTO 20008KT 10SM CLR M06/M11 A3008 RMK AO2 SLP201 T10561111